Time;durP1;ratioP1;P1;durP2;ratioP2;P2;SDS_P1;SDS_P2;PMS_P1;PMS_P2;Temp;Humidity;BMP_temperature;BMP_pressure;BME280_temperature;BME280_humidity;BME280_pressure;Samples;Min_cycle;Max_cycle;Signal;HPM_P1;HPM_P2
2024/04/21 00:01:29;;;;;;;8.75;1.70;;;;;;;3.86;100.00;102489.25;5564335;25;20421;-76
2024/04/21 00:03:55;;;;;;;11.25;1.85;;;;;;;3.94;100.00;102487.19;5564708;25;20064;-74
2024/04/21 00:06:20;;;;;;;11.75;1.73;;;;;;;4.00;100.00;102486.09;5564332;25;19996;-74
2024/04/21 00:08:46;;;;;;;9.13;1.45;;;;;;;4.03;100.00;102488.63;5564441;25;20000;-73
2024/04/21 00:11:11;;;;;;;9.90;1.50;;;;;;;4.05;100.00;102492.91;5564778;25;20301;-73
2024/04/21 00:13:36;;;;;;;20.48;2.30;;;;;;;4.08;100.00;102478.78;5531020;25;20000;-74
2024/04/21 00:16:02;;;;;;;13.10;1.40;;;;;;;4.09;100.00;102484.91;5564836;25;19999;-74
2024/04/21 00:18:27;;;;;;;11.63;2.33;;;;;;;4.09;100.00;102485.78;5564174;25;20386;-74
2024/04/21 00:20:52;;;;;;;16.02;2.63;;;;;;;4.07;100.00;102479.69;5564104;25;19997;-74
2024/04/21 00:23:18;;;;;;;10.05;1.80;;;;;;;4.05;100.00;102471.00;5564016;25;19997;-74
2024/04/21 00:25:43;;;;;;;8.82;1.73;;;;;;;4.00;100.00;102465.03;5563835;25;20004;-74
2024/04/21 00:28:08;;;;;;;11.43;1.67;;;;;;;3.93;100.00;102474.09;5564038;25;20355;-74
2024/04/21 00:30:35;;;;;;;10.50;2.35;;;;;;;3.83;100.00;102455.97;5563821;25;19993;-74
2024/04/21 00:33:00;;;;;;;10.98;1.85;;;;;;;3.76;100.00;102456.25;5531401;25;19993;-74
2024/04/21 00:35:26;;;;;;;9.60;1.95;;;;;;;3.73;100.00;102451.09;5563689;25;19996;-80
2024/04/21 00:37:51;;;;;;;7.30;1.42;;;;;;;3.66;100.00;102453.09;5564173;25;20008;-74
2024/04/21 00:40:16;;;;;;;10.75;2.10;;;;;;;3.57;100.00;102449.03;5563759;25;20313;-74
2024/04/21 00:42:42;;;;;;;15.65;1.90;;;;;;;3.50;100.00;102442.25;5563995;25;20295;-74
2024/04/21 00:45:07;;;;;;;11.40;2.00;;;;;;;3.46;100.00;102441.50;5563121;25;20354;-75
2024/04/21 00:47:36;;;;;;;10.55;2.13;;;;;;;3.51;100.00;102438.72;5563819;25;19997;-75
2024/04/21 00:50:02;;;;;;;14.80;3.15;;;;;;;3.65;100.00;102433.78;5563605;25;19996;-74
2024/04/21 00:52:28;;;;;;;9.10;1.83;;;;;;;3.86;100.00;102444.47;5563751;25;20004;-75
2024/04/21 00:54:54;;;;;;;9.38;2.22;;;;;;;3.92;100.00;102433.69;5564831;25;20001;-74
2024/04/21 00:57:20;;;;;;;14.15;1.85;;;;;;;3.94;100.00;102441.53;5564086;25;20003;-74
2024/04/21 00:59:46;;;;;;;23.45;2.70;;;;;;;3.94;100.00;102428.38;5530716;25;20008;-74
2024/04/21 01:02:11;;;;;;;15.05;1.98;;;;;;;3.89;100.00;102431.19;5563648;25;20008;-75
2024/04/21 01:04:37;;;;;;;19.67;2.78;;;;;;;3.85;100.00;102435.72;5563321;25;19996;-75
2024/04/21 01:07:02;;;;;;;17.25;2.97;;;;;;;3.84;100.00;102419.97;5530788;25;20003;-75
2024/04/21 01:09:28;;;;;;;8.27;2.22;;;;;;;3.89;100.00;102421.50;5563724;25;19992;-74
2024/04/21 01:11:53;;;;;;;12.35;2.08;;;;;;;4.03;100.00;102430.66;5563602;25;19993;-74
2024/04/21 01:14:18;;;;;;;11.25;2.17;;;;;;;4.21;100.00;102444.91;5563782;25;19996;-74
2024/04/21 01:16:44;;;;;;;8.98;1.73;;;;;;;4.28;100.00;102443.75;5499315;25;20057;-74
2024/04/21 01:19:10;;;;;;;10.60;1.88;;;;;;;4.27;100.00;102442.06;5563510;25;20033;-75
2024/04/21 01:21:36;;;;;;;6.15;1.45;;;;;;;4.15;100.00;102440.75;5563220;25;20035;-75
2024/04/21 01:24:01;;;;;;;10.80;2.08;;;;;;;3.99;100.00;102423.81;5529967;25;19996;-74
2024/04/21 01:26:26;;;;;;;17.33;1.92;;;;;;;3.85;100.00;102425.19;5563090;25;20004;-74
2024/04/21 01:28:52;;;;;;;9.88;1.58;;;;;;;3.71;100.00;102430.09;5563033;25;20004;-74
2024/04/21 01:31:17;;;;;;;18.83;2.13;;;;;;;3.64;100.00;102431.22;5563318;25;20004;-74
2024/04/21 01:33:42;;;;;;;9.98;1.85;;;;;;;3.60;100.00;102427.84;5562743;25;19996;-74
2024/04/21 01:36:08;;;;;;;15.23;1.52;;;;;;;3.61;100.00;102420.81;5530344;25;19993;-76
2024/04/21 01:38:33;;;;;;;13.25;1.88;;;;;;;3.63;100.00;102422.47;5572888;25;20004;-75
2024/04/21 01:40:58;;;;;;;15.10;2.95;;;;;;;3.69;100.00;102416.13;5578939;25;20000;-75
2024/04/21 01:43:24;;;;;;;18.33;2.42;;;;;;;3.80;100.00;102426.25;5578964;25;20089;-75
2024/04/21 01:45:52;;;;;;;11.88;2.03;;;;;;;3.89;100.00;102421.50;5577379;25;19993;-75
2024/04/21 01:48:17;;;;;;;7.40;1.70;;;;;;;3.92;100.00;102410.00;5544897;25;20003;-73
2024/04/21 01:50:42;;;;;;;13.90;1.95;;;;;;;3.86;100.00;102403.19;5544773;25;19993;-75
2024/04/21 01:53:08;;;;;;;9.02;1.73;;;;;;;3.79;100.00;102398.22;5564956;25;20436;-74
2024/04/21 01:55:33;;;;;;;6.07;1.25;;;;;;;3.70;100.00;102396.75;5562890;25;20003;-74
2024/04/21 01:57:58;;;;;;;6.93;1.30;;;;;;;3.58;100.00;102392.81;5566312;25;20008;-74
2024/04/21 02:00:23;;;;;;;7.68;1.52;;;;;;;3.41;100.00;102397.84;5566668;25;20025;-75
2024/04/21 02:02:49;;;;;;;8.45;1.60;;;;;;;3.24;100.00;102393.16;5565996;25;20065;-75
2024/04/21 02:05:15;;;;;;;11.75;2.25;;;;;;;3.07;100.00;102389.34;5533329;25;19989;-75
2024/04/21 02:07:40;;;;;;;10.00;2.40;;;;;;;2.92;100.00;102376.72;5565642;25;20004;-76
2024/04/21 02:10:06;;;;;;;7.32;2.00;;;;;;;2.81;100.00;102375.31;5566008;25;20003;-76
2024/04/21 02:12:31;;;;;;;7.65;1.40;;;;;;;2.74;100.00;102363.28;5565750;25;19993;-75
2024/04/21 02:14:56;;;;;;;7.40;1.48;;;;;;;2.71;100.00;102365.16;5565483;25;20310;-75
2024/04/21 02:17:22;;;;;;;4.50;1.33;;;;;;;2.72;100.00;102348.47;5532744;25;20000;-76
2024/04/21 02:19:47;;;;;;;9.13;1.83;;;;;;;2.80;100.00;102346.44;5565087;25;19996;-75
2024/04/21 02:22:12;;;;;;;8.23;1.92;;;;;;;2.89;100.00;102345.28;5565704;25;20331;-75
2024/04/21 02:24:40;;;;;;;10.23;2.45;;;;;;;2.96;100.00;102345.00;5565374;25;19993;-74
2024/04/21 02:27:09;;;;;;;18.95;2.25;;;;;;;3.08;100.00;102334.97;5532247;25;20320;-75
2024/04/21 02:29:34;;;;;;;17.00;2.42;;;;;;;3.23;100.00;102331.78;5565704;25;20005;-75
2024/04/21 02:31:59;;;;;;;16.77;2.30;;;;;;;3.37;100.00;102343.59;5565475;25;19993;-75
2024/04/21 02:34:25;;;;;;;12.55;2.00;;;;;;;3.51;100.00;102336.06;5565931;25;20409;-73
2024/04/21 02:36:50;;;;;;;17.33;2.25;;;;;;;3.74;100.00;102337.81;5565090;25;19993;-74
2024/04/21 02:39:15;;;;;;;21.98;3.40;;;;;;;3.92;100.00;102330.16;5565455;25;19993;-74
2024/04/21 02:41:41;;;;;;;16.00;2.17;;;;;;;4.10;100.00;102328.56;5565481;25;20004;-74
2024/04/21 02:44:07;;;;;;;11.38;2.22;;;;;;;4.24;100.00;102323.63;5531904;25;20004;-74
2024/04/21 02:46:33;;;;;;;13.13;2.40;;;;;;;4.40;100.00;102321.19;5566022;25;20004;-74
2024/04/21 02:48:59;;;;;;;16.63;2.55;;;;;;;4.45;100.00;102318.38;5564882;25;20000;-74
2024/04/21 02:51:24;;;;;;;16.33;2.75;;;;;;;4.52;100.00;102322.47;5565111;25;19993;-73
2024/04/21 02:53:50;;;;;;;14.05;2.42;;;;;;;4.58;100.00;102335.41;5565326;25;20004;-74
2024/04/21 02:56:15;;;;;;;10.85;1.98;;;;;;;4.62;100.00;102312.41;5532459;25;20086;-74
2024/04/21 02:58:40;;;;;;;20.33;3.13;;;;;;;4.54;100.00;102305.69;5531930;25;19989;-74
2024/04/21 03:01:06;;;;;;;26.17;2.50;;;;;;;4.47;100.00;102300.72;5565032;25;20116;-74
2024/04/21 03:03:31;;;;;;;16.20;1.77;;;;;;;4.44;100.00;102295.59;5564811;25;20310;-74
2024/04/21 03:05:57;;;;;;;17.60;2.38;;;;;;;4.53;100.00;102296.06;5565478;25;20443;-73
2024/04/21 03:08:24;;;;;;;13.82;2.25;;;;;;;4.63;100.00;102285.97;5564404;25;20005;-74
2024/04/21 03:10:49;;;;;;;19.10;2.65;;;;;;;4.72;100.00;102290.84;5564876;25;20004;-74
2024/04/21 03:13:15;;;;;;;17.98;2.90;;;;;;;4.75;100.00;102274.91;5564814;25;19993;-74
2024/04/21 03:15:40;;;;;;;14.85;3.53;;;;;;;4.80;100.00;102274.69;5564842;25;20439;-74
2024/04/21 03:18:06;;;;;;;15.25;2.55;;;;;;;4.87;100.00;102276.16;5564397;25;19996;-73
2024/04/21 03:20:31;;;;;;;17.00;2.30;;;;;;;4.92;100.00;102290.00;5564887;25;20072;-74
2024/04/21 03:22:56;;;;;;;14.75;2.50;;;;;;;4.97;100.00;102281.91;5564485;25;19996;-74
2024/04/21 03:25:22;;;;;;;13.75;3.05;;;;;;;4.90;100.00;102283.94;5564781;25;20004;-74
2024/04/21 03:27:47;;;;;;;16.58;2.60;;;;;;;4.85;100.00;102300.88;5564466;25;20455;-73
2024/04/21 03:30:13;;;;;;;6.32;1.63;;;;;;;4.66;100.00;102322.75;5564720;25;20016;-75
2024/04/21 03:32:38;;;;;;;6.78;1.45;;;;;;;4.29;100.00;102334.81;5564672;25;20000;-75
2024/04/21 03:35:04;;;;;;;7.93;1.02;;;;;;;3.87;100.00;102317.16;5564435;25;20405;-76
2024/04/21 03:37:29;;;;;;;6.63;1.48;;;;;;;3.52;100.00;102299.16;5564724;25;19996;-76
2024/04/21 03:39:55;;;;;;;4.97;1.30;;;;;;;3.21;100.00;102299.44;5531867;25;20004;-76
2024/04/21 03:42:20;;;;;;;7.43;1.40;;;;;;;3.02;100.00;102288.72;5532157;25;19993;-76
2024/04/21 03:44:45;;;;;;;6.95;1.48;;;;;;;2.89;100.00;102309.31;5564860;25;20114;-76
2024/04/21 03:47:11;;;;;;;11.35;1.45;;;;;;;2.89;100.00;102332.13;5564630;25;19996;-76
2024/04/21 03:49:36;;;;;;;12.63;1.50;;;;;;;2.87;100.00;102326.06;5532475;25;20003;-77
2024/04/21 03:52:01;;;;;;;7.78;1.40;;;;;;;2.83;100.00;102325.31;5531194;25;20008;-75
2024/04/21 03:54:27;;;;;;;11.75;1.33;;;;;;;2.72;100.00;102353.75;5564967;25;19992;-76
2024/04/21 03:56:52;;;;;;;9.23;1.25;;;;;;;2.61;100.00;102351.44;5564494;25;19997;-77
2024/04/21 03:59:17;;;;;;;5.75;1.15;;;;;;;2.42;100.00;102328.41;5531528;25;19996;-76
2024/04/21 04:01:45;;;;;;;5.78;1.45;;;;;;;2.28;100.00;102338.50;5564798;25;20001;-77
2024/04/21 04:04:10;;;;;;;3.83;1.33;;;;;;;2.13;100.00;102339.81;5532034;25;20008;-78
2024/04/21 04:06:35;;;;;;;6.40;1.88;;;;;;;2.02;100.00;102340.16;5564532;25;19997;-78
2024/04/21 04:09:01;;;;;;;14.93;2.10;;;;;;;1.93;100.00;102345.69;5564249;25;19993;-78
2024/04/21 04:11:26;;;;;;;7.68;1.45;;;;;;;1.85;100.00;102339.81;5564687;25;20001;-78
2024/04/21 04:13:51;;;;;;;10.43;2.30;;;;;;;1.79;100.00;102322.47;5531738;25;20007;-77
2024/04/21 04:16:17;;;;;;;11.98;1.98;;;;;;;1.76;100.00;102325.19;5564775;25;20065;-78
2024/04/21 04:18:42;;;;;;;7.45;1.40;;;;;;;1.67;100.00;102321.09;5563052;25;20009;-78
2024/04/21 04:21:08;;;;;;;7.30;2.00;;;;;;;1.61;100.00;102331.75;5564874;25;19997;-79
2024/04/21 04:23:33;;;;;;;8.35;1.63;;;;;;;1.54;100.00;102322.38;5564266;25;20070;-79
2024/04/21 04:25:59;;;;;;;14.88;2.00;;;;;;;1.49;100.00;102329.50;5531051;25;20032;-80
2024/04/21 04:28:24;;;;;;;11.38;1.77;;;;;;;1.47;100.00;102321.66;5564343;25;19997;-77
2024/04/21 04:30:50;;;;;;;13.55;2.13;;;;;;;1.40;100.00;102326.25;5564312;25;20033;-78
2024/04/21 04:33:15;;;;;;;10.02;1.55;;;;;;;1.32;100.00;102328.19;5563955;25;20164;-77
2024/04/21 04:35:40;;;;;;;14.57;2.25;;;;;;;1.23;100.00;102331.09;5564207;25;19997;-77
2024/04/21 04:38:06;;;;;;;21.27;2.30;;;;;;;1.19;100.00;102332.91;5563981;25;20320;-78
2024/04/21 04:40:32;;;;;;;14.45;2.15;;;;;;;1.22;100.00;102325.00;5563993;25;19996;-78
2024/04/21 04:42:58;;;;;;;10.52;1.95;;;;;;;1.27;100.00;102331.84;5564284;25;20008;-78
2024/04/21 04:45:23;;;;;;;17.58;2.58;;;;;;;1.31;100.00;102333.50;5563934;25;20429;-77
2024/04/21 04:47:49;;;;;;;10.13;1.92;;;;;;;1.28;100.00;102344.06;5564065;25;20461;-77
2024/04/21 04:50:14;;;;;;;12.68;2.60;;;;;;;1.29;100.00;102341.41;5564325;25;20007;-78
2024/04/21 04:52:40;;;;;;;24.42;2.97;;;;;;;1.31;100.00;102349.22;5564019;25;20328;-78
2024/04/21 04:55:05;;;;;;;16.52;2.35;;;;;;;1.32;100.00;102350.97;5563965;25;20449;-79
2024/04/21 04:57:31;;;;;;;14.82;2.33;;;;;;;1.34;100.00;102355.22;5563898;25;20065;-78
2024/04/21 04:59:56;;;;;;;19.10;2.58;;;;;;;1.34;100.00;102346.53;5563401;25;19993;-78
2024/04/21 05:02:21;;;;;;;21.48;2.67;;;;;;;1.34;100.00;102351.75;5563836;25;19996;-77
2024/04/21 05:04:47;;;;;;;12.65;2.60;;;;;;;1.35;100.00;102351.72;5563874;25;19993;-78
2024/04/21 05:07:12;;;;;;;13.30;2.55;;;;;;;1.39;100.00;102358.59;5564049;25;20005;-78
2024/04/21 05:09:38;;;;;;;6.88;2.30;;;;;;;1.46;100.00;102355.81;5564104;25;20004;-77
2024/04/21 05:12:03;;;;;;;13.75;2.30;;;;;;;1.48;100.00;102357.50;5531483;25;19997;-78
2024/04/21 05:14:29;;;;;;;16.00;2.83;;;;;;;1.50;100.00;102360.06;5563784;25;19993;-78
2024/04/21 05:16:54;;;;;;;10.45;2.03;;;;;;;1.53;100.00;102363.47;5563854;25;19993;-77
2024/04/21 05:19:20;;;;;;;21.23;3.35;;;;;;;1.58;100.00;102365.94;5563525;25;20003;-77
2024/04/21 05:21:45;;;;;;;15.75;2.08;;;;;;;1.64;100.00;102367.53;5563660;25;20417;-78
2024/04/21 05:24:10;;;;;;;15.88;2.45;;;;;;;1.65;100.00;102375.38;5563832;25;19993;-78
2024/04/21 05:26:36;;;;;;;25.85;3.85;;;;;;;1.67;100.00;102373.59;5563457;25;20474;-77
2024/04/21 05:29:01;;;;;;;11.95;2.90;;;;;;;1.68;100.00;102374.44;5563420;25;20427;-78
2024/04/21 05:31:26;;;;;;;11.40;2.22;;;;;;;1.74;100.00;102374.25;5533529;25;20403;-77
2024/04/21 05:33:52;;;;;;;13.10;2.05;;;;;;;1.79;100.00;102377.59;5534023;25;20008;-78
2024/04/21 05:36:17;;;;;;;14.52;2.13;;;;;;;1.88;100.00;102379.09;5566262;25;19996;-77
2024/04/21 05:38:42;;;;;;;10.30;2.22;;;;;;;1.95;100.00;102385.88;5566332;25;19992;-78
2024/04/21 05:41:08;;;;;;;10.23;2.08;;;;;;;2.02;100.00;102386.56;5566164;25;20008;-78
2024/04/21 05:43:33;;;;;;;15.18;2.13;;;;;;;2.07;100.00;102385.50;5565964;25;20001;-77
2024/04/21 05:46:02;;;;;;;9.77;2.35;;;;;;;2.14;100.00;102382.72;5566342;25;20008;-78
2024/04/21 05:48:28;;;;;;;7.60;2.05;;;;;;;2.20;100.00;102383.38;5566120;25;19997;-76
2024/04/21 05:50:53;;;;;;;7.38;1.70;;;;;;;2.26;100.00;102387.59;5533001;25;20008;-77
2024/04/21 05:53:19;;;;;;;8.80;1.88;;;;;;;2.34;100.00;102395.22;5565998;25;20018;-78
2024/04/21 05:55:47;;;;;;;5.38;1.48;;;;;;;2.39;100.00;102403.81;5566087;25;19993;-77
2024/04/21 05:58:13;;;;;;;10.77;2.03;;;;;;;2.45;100.00;102396.63;5532987;25;20504;-79
2024/04/21 06:00:39;;;;;;;10.35;1.80;;;;;;;2.56;100.00;102409.41;5565718;25;20094;-77
2024/04/21 06:03:05;;;;;;;5.75;1.48;;;;;;;2.65;100.00;102416.16;5565956;25;19988;-77
2024/04/21 06:05:30;;;;;;;9.60;1.67;;;;;;;2.72;100.00;102420.31;5532928;25;19988;-77
2024/04/21 06:07:56;;;;;;;12.18;1.98;;;;;;;2.76;100.00;102427.19;5566088;25;20011;-77
2024/04/21 06:10:21;;;;;;;11.27;2.08;;;;;;;2.82;100.00;102428.72;5565904;25;20012;-77
2024/04/21 06:12:48;;;;;;;13.63;2.17;;;;;;;2.91;100.00;102425.81;5565805;25;20008;-76
2024/04/21 06:15:14;;;;;;;10.38;1.63;;;;;;;3.02;100.00;102433.34;5565985;25;20417;-76
2024/04/21 06:17:40;;;;;;;5.78;1.70;;;;;;;3.08;100.00;102435.78;5566655;25;20015;-77
2024/04/21 06:20:06;;;;;;;8.50;1.65;;;;;;;3.14;100.00;102446.09;5565844;25;20437;-77
2024/04/21 06:22:31;;;;;;;7.30;1.83;;;;;;;3.26;100.00;102450.06;5533142;25;19993;-77
2024/04/21 06:24:56;;;;;;;7.53;1.48;;;;;;;3.34;100.00;102455.06;5565966;25;19997;-77
2024/04/21 06:27:22;;;;;;;6.90;1.50;;;;;;;3.42;100.00;102460.94;5565659;25;19997;-77
2024/04/21 06:29:47;;;;;;;5.05;1.60;;;;;;;3.50;100.00;102458.03;5565700;25;19993;-77
2024/04/21 06:32:12;;;;;;;9.27;1.52;;;;;;;3.60;100.00;102454.16;5532651;25;20064;-77
2024/04/21 06:34:38;;;;;;;7.95;1.60;;;;;;;3.68;100.00;102467.91;5565625;25;20004;-78
2024/04/21 06:37:03;;;;;;;10.50;2.22;;;;;;;3.80;100.00;102469.25;5566088;25;20418;-77
2024/04/21 06:39:28;;;;;;;7.80;1.80;;;;;;;3.89;100.00;102473.31;5565551;25;20444;-77
2024/04/21 06:41:54;;;;;;;6.10;1.42;;;;;;;4.00;100.00;102483.47;5565597;25;20004;-78
2024/04/21 06:44:19;;;;;;;7.43;1.70;;;;;;;4.08;100.00;102491.94;5566158;25;19992;-80
2024/04/21 06:46:44;;;;;;;9.40;1.50;;;;;;;4.14;100.00;102497.00;5566434;25;20339;-77
2024/04/21 06:49:10;;;;;;;6.45;1.50;;;;;;;4.20;100.00;102494.13;5565463;25;20004;-76
2024/04/21 06:51:35;;;;;;;8.73;1.77;;;;;;;4.27;100.00;102497.41;5565624;25;20399;-77
2024/04/21 06:54:02;;;;;;;10.02;1.52;;;;;;;4.34;100.00;102498.03;5565636;25;20317;-79
2024/04/21 06:56:27;;;;;;;7.95;1.40;;;;;;;4.42;100.00;102501.25;5565752;25;19992;-77
2024/04/21 06:58:53;;;;;;;4.90;1.30;;;;;;;4.49;100.00;102507.97;5565950;25;20057;-78
2024/04/21 07:01:18;;;;;;;9.40;1.55;;;;;;;4.56;100.00;102514.72;5565121;25;20001;-77
2024/04/21 07:03:44;;;;;;;7.70;1.15;;;;;;;4.62;100.00;102516.28;5565003;25;20029;-77
2024/04/21 07:06:09;;;;;;;3.88;1.33;;;;;;;4.68;100.00;102510.75;5565390;25;20008;-77
2024/04/21 07:08:34;;;;;;;12.45;1.50;;;;;;;4.78;100.00;102524.47;5565618;25;19993;-77
2024/04/21 07:11:00;;;;;;;7.25;1.58;;;;;;;4.88;100.00;102533.72;5565349;25;20003;-77
2024/04/21 07:13:26;;;;;;;8.40;1.30;;;;;;;4.92;100.00;102537.94;5565904;25;20007;-77
2024/04/21 07:15:51;;;;;;;7.78;1.67;;;;;;;4.99;100.00;102530.66;5565260;25;19997;-78
2024/04/21 07:18:16;;;;;;;7.88;1.33;;;;;;;5.05;100.00;102540.13;5531903;25;20342;-77
2024/04/21 07:20:42;;;;;;;10.70;1.70;;;;;;;5.20;100.00;102541.28;5564900;25;19992;-77
2024/04/21 07:23:07;;;;;;;7.70;1.45;;;;;;;5.34;100.00;102551.25;5565408;25;19992;-77
2024/04/21 07:25:32;;;;;;;5.28;1.52;;;;;;;5.47;100.00;102549.84;5565282;25;20008;-77
2024/04/21 07:27:58;;;;;;;8.05;2.10;;;;;;;5.59;100.00;102551.09;5564786;25;20309;-77
2024/04/21 07:30:23;;;;;;;3.97;1.05;;;;;;;5.75;100.00;102548.66;5564866;25;19993;-77
2024/04/21 07:32:48;;;;;;;8.50;1.27;;;;;;;5.85;100.00;102549.97;5564487;25;19996;-78
2024/04/21 07:35:14;;;;;;;15.75;2.25;;;;;;;6.01;100.00;102560.78;5564408;25;20097;-77
2024/04/21 07:37:39;;;;;;;8.68;1.50;;;;;;;6.22;100.00;102552.81;5527694;25;955777;-77
2024/04/21 07:40:05;;;;;;;8.15;1.60;;;;;;;6.43;100.00;102569.50;5564753;25;20428;-77
2024/04/21 07:42:31;;;;;;;10.98;1.45;;;;;;;6.46;100.00;102569.34;5564779;25;20065;-78
2024/04/21 07:44:56;;;;;;;10.68;1.52;;;;;;;6.57;100.00;102572.38;5564845;25;20005;-77
2024/04/21 07:47:21;;;;;;;9.10;1.92;;;;;;;6.63;100.00;102579.19;5565153;25;19996;-77
2024/04/21 07:49:47;;;;;;;6.65;1.33;;;;;;;6.69;100.00;102584.19;5564447;25;20049;-77
2024/04/21 07:52:12;;;;;;;7.20;1.48;;;;;;;6.67;100.00;102589.53;5564886;25;20004;-78
2024/04/21 07:54:37;;;;;;;5.20;1.50;;;;;;;6.78;100.00;102604.06;5530283;25;19989;-77
2024/04/21 07:57:03;;;;;;;7.82;1.80;;;;;;;6.93;100.00;102591.91;5564787;25;19996;-77
2024/04/21 07:59:28;;;;;;;12.40;1.48;;;;;;;7.09;100.00;102603.47;5501211;25;20003;-77
2024/04/21 08:01:53;;;;;;;7.45;1.67;;;;;;;7.19;100.00;102604.72;5564297;25;20401;-77
2024/04/21 08:04:19;;;;;;;3.40;1.42;;;;;;;7.36;100.00;102608.34;5565190;25;20004;-77
2024/04/21 08:06:44;;;;;;;7.53;1.63;;;;;;;7.67;100.00;102609.50;5530905;25;20322;-77
2024/04/21 08:09:09;;;;;;;12.70;1.50;;;;;;;8.08;100.00;102617.13;5565460;25;20401;-77
2024/04/21 08:11:35;;;;;;;9.68;2.10;;;;;;;8.24;100.00;102615.41;5564077;25;20341;-77
2024/04/21 08:14:00;;;;;;;5.20;1.50;;;;;;;8.34;100.00;102621.06;5564340;25;19997;-78
2024/04/21 08:16:25;;;;;;;7.28;1.65;;;;;;;8.16;100.00;102625.53;5563789;25;20029;-77
2024/04/21 08:18:51;;;;;;;7.35;1.45;;;;;;;8.34;100.00;102631.66;5563900;25;20004;-77
2024/04/21 08:21:16;;;;;;;8.13;1.55;;;;;;;8.65;100.00;102630.94;5563891;25;20079;-77
2024/04/21 08:23:42;;;;;;;13.75;2.10;;;;;;;8.94;100.00;102633.81;5531372;25;19997;-77
2024/04/21 08:26:07;;;;;;;10.80;1.55;;;;;;;8.73;100.00;102634.97;5563946;25;20029;-77
2024/04/21 08:28:32;;;;;;;7.90;1.50;;;;;;;8.87;100.00;102634.22;5564108;25;19996;-76
2024/04/21 08:30:58;;;;;;;6.03;1.50;;;;;;;9.27;100.00;102639.97;5564480;25;20011;-76
2024/04/21 08:33:24;;;;;;;9.18;1.83;;;;;;;9.58;100.00;102647.03;5563980;25;20033;-74
2024/04/21 08:35:57;;;;;;;7.97;1.40;;;;;;;9.63;100.00;102649.44;5565130;25;19992;-75
2024/04/21 08:38:22;;;;;;;8.43;1.75;;;;;;;9.22;100.00;102653.50;5572201;25;20492;-75
2024/04/21 08:40:50;;;;;;;6.72;1.70;;;;;;;8.79;100.00;102659.41;5573781;25;20020;-75
2024/04/21 08:43:23;;;;;;;6.78;1.67;;;;;;;8.62;100.00;102654.97;5574128;25;20058;-75
2024/04/21 08:45:54;;;;;;;5.50;1.45;;;;;;;8.51;100.00;102653.84;5572443;25;19996;-74
2024/04/21 08:48:20;;;;;;;12.27;1.95;;;;;;;8.31;100.00;102666.31;5571164;25;20004;-75
2024/04/21 08:50:46;;;;;;;9.00;1.63;;;;;;;8.07;100.00;102665.78;5571684;25;20012;-74
2024/04/21 08:53:12;;;;;;;9.23;2.17;;;;;;;8.32;100.00;102659.25;5566855;25;20076;-75
2024/04/21 08:55:38;;;;;;;10.23;1.85;;;;;;;8.96;100.00;102668.25;5563814;25;19997;-75
2024/04/21 08:58:07;;;;;;;8.38;1.33;;;;;;;9.93;100.00;102664.53;5563620;25;20065;-75
2024/04/21 09:00:33;;;;;;;5.57;1.60;;;;;;;11.10;100.00;102663.59;5563513;25;20030;-74
2024/04/21 09:02:58;;;;;;;5.00;1.48;;;;;;;11.65;100.00;102671.66;5562889;25;20509;-74
2024/04/21 09:05:24;;;;;;;8.52;1.27;;;;;;;12.35;100.00;102671.38;5529569;25;19996;-73
2024/04/21 09:07:50;;;;;;;5.32;1.52;;;;;;;10.72;100.00;102679.34;5563079;25;20005;-73
2024/04/21 09:10:16;;;;;;;5.00;1.30;;;;;;;10.57;100.00;102676.69;5563183;25;20009;-74
2024/04/21 09:12:42;;;;;;;6.03;1.00;;;;;;;11.49;100.00;102676.28;5562888;25;20004;-75
2024/04/21 09:15:09;;;;;;;6.97;1.20;;;;;;;13.10;100.00;102671.53;5530337;25;20000;-74
2024/04/21 09:17:34;;;;;;;6.25;1.17;;;;;;;14.63;100.00;102679.72;5562909;25;20340;-73
2024/04/21 09:19:59;;;;;;;4.25;1.30;;;;;;;14.77;100.00;102687.50;5562926;25;20001;-75
2024/04/21 09:22:25;;;;;;;5.82;1.48;;;;;;;15.18;100.00;102674.41;5562870;25;20008;-74
2024/04/21 09:24:51;;;;;;;6.22;1.58;;;;;;;15.82;100.00;102689.75;5562428;25;19988;-74
2024/04/21 09:27:18;;;;;;;6.93;1.63;;;;;;;15.78;100.00;102682.94;5563190;25;20011;-73
2024/04/21 09:29:44;;;;;;;7.15;1.35;;;;;;;16.56;100.00;102679.91;5562921;25;20025;-74
2024/04/21 09:32:12;;;;;;;3.92;1.30;;;;;;;16.01;100.00;102682.81;5562911;25;19997;-74
2024/04/21 09:34:38;;;;;;;5.57;0.95;;;;;;;16.57;100.00;102685.16;5562676;25;20003;-75
2024/04/21 09:37:03;;;;;;;8.82;1.92;;;;;;;17.17;100.00;102676.34;5562319;25;19993;-75
2024/04/21 09:39:30;;;;;;;7.93;1.80;;;;;;;17.01;100.00;102676.88;5529954;25;20317;-74
2024/04/21 09:41:56;;;;;;;7.40;1.58;;;;;;;17.29;100.00;102682.47;5530406;25;19992;-75
2024/04/21 09:44:22;;;;;;;6.30;1.42;;;;;;;17.27;100.00;102685.28;5529425;25;19997;-73
2024/04/21 09:46:48;;;;;;;3.60;1.50;;;;;;;17.51;100.00;102685.88;5562316;25;20012;-74
2024/04/21 09:49:16;;;;;;;5.03;1.10;;;;;;;17.60;100.00;102693.97;5562322;25;20064;-74
2024/04/21 09:51:43;;;;;;;5.55;1.38;;;;;;;17.76;100.00;102687.16;5562561;25;19989;-73
2024/04/21 09:54:10;;;;;;;4.90;1.50;;;;;;;17.94;100.00;102706.19;5562776;25;19997;-74
2024/04/21 09:56:39;;;;;;;5.63;1.95;;;;;;;18.24;100.00;102693.53;5562227;25;19992;-74
2024/04/21 09:59:09;;;;;;;5.10;1.27;;;;;;;17.47;100.00;102697.94;5562206;25;20033;-74
2024/04/21 10:01:39;;;;;;;8.20;1.35;;;;;;;18.02;97.06;102702.78;5562036;25;19993;-73
2024/04/21 10:04:13;;;;;;;4.75;1.35;;;;;;;18.45;100.00;102701.41;5561813;25;20001;-73
2024/04/21 10:06:39;;;;;;;5.20;1.60;;;;;;;17.53;100.00;102700.91;5530055;25;19996;-73
2024/04/21 10:09:04;;;;;;;4.57;1.50;;;;;;;17.36;100.00;102702.44;5562060;25;20068;-73
2024/04/21 10:11:30;;;;;;;3.83;1.30;;;;;;;17.96;94.91;102705.06;5529150;25;20064;-72
2024/04/21 10:13:59;;;;;;;10.23;1.83;;;;;;;17.95;100.00;102702.50;5562374;25;20008;-73
2024/04/21 10:16:25;;;;;;;4.72;1.40;;;;;;;18.91;100.00;102715.06;5562153;25;19999;-72
2024/04/21 10:19:03;;;;;;;9.15;2.35;;;;;;;19.38;97.88;102714.97;5566195;25;20070;-79
2024/04/21 10:21:30;;;;;;;3.90;1.63;;;;;;;20.69;85.93;102711.69;5566253;25;19997;-74
2024/04/21 10:23:55;;;;;;;2.97;1.05;;;;;;;19.45;86.95;102716.06;5564907;25;20067;-75
2024/04/21 10:26:21;;;;;;;5.13;1.30;;;;;;;19.01;91.93;102722.09;5566024;25;19989;-73
2024/04/21 10:28:46;;;;;;;3.13;0.98;;;;;;;18.81;96.64;102723.16;5565845;25;19992;-74
2024/04/21 10:31:12;;;;;;;2.72;0.98;;;;;;;19.35;100.00;102717.97;5565927;25;19993;-73
2024/04/21 10:33:39;;;;;;;5.80;1.60;;;;;;;19.47;95.69;102722.16;5566065;25;20068;-73
2024/04/21 10:36:04;;;;;;;8.32;1.30;;;;;;;19.22;87.15;102714.78;5565413;25;19997;-73
2024/04/21 10:38:30;;;;;;;20.40;1.48;;;;;;;19.47;84.42;102716.75;5501950;25;19993;-74
2024/04/21 10:40:57;;;;;;;4.78;1.40;;;;;;;19.26;100.00;102716.16;5565825;25;19996;-77
2024/04/21 10:43:27;;;;;;;2.60;1.08;;;;;;;19.78;96.13;102723.66;5565939;25;19996;-78
2024/04/21 10:45:59;;;;;;;3.30;1.10;;;;;;;19.26;92.12;102719.72;5532930;25;20327;-80
2024/04/21 10:48:25;;;;;;;5.40;1.40;;;;;;;19.63;87.05;102717.91;5566566;25;20007;-86
2024/04/21 10:50:50;;;;;;;2.83;1.13;;;;;;;19.50;80.82;102724.53;5565793;25;19997;-86
2024/04/21 10:53:15;;;;;;;1.65;1.10;;;;;;;19.25;87.77;102725.28;5532887;25;19996;-87
2024/04/21 10:55:41;;;;;;;5.15;1.27;;;;;;;18.31;100.00;102727.84;5533162;25;19996;-85
2024/04/21 10:58:08;;;;;;;3.60;1.15;;;;;;;18.56;91.50;102727.38;5565870;25;20064;-82
2024/04/21 11:00:37;;;;;;;3.88;1.20;;;;;;;18.98;92.83;102735.06;5566142;25;20433;-83
2024/04/21 11:03:06;;;;;;;5.55;1.40;;;;;;;17.46;95.47;102734.75;5565567;25;19993;-83
2024/04/21 11:05:40;;;;;;;4.78;1.88;;;;;;;15.99;100.00;102735.81;5565790;25;20003;-83
2024/04/21 11:08:06;;;;;;;5.40;1.27;;;;;;;16.12;100.00;102730.25;5565120;25;20084;-83
2024/04/21 11:10:32;;;;;;;5.15;1.38;;;;;;;17.50;100.00;102730.78;5565728;25;20064;-83
2024/04/21 11:12:57;;;;;;;6.40;1.33;;;;;;;17.20;100.00;102735.25;5565393;25;19997;-82
2024/04/21 11:15:22;;;;;;;4.22;1.70;;;;;;;16.06;100.00;102736.13;5565092;25;20007;-78